sensor_id;sensor_type;location;lat;lon;timestamp;P1;durP1;ratioP1;P2;durP2;ratioP2
66127;SDS011;52925;52.436;-1.952;2023-02-20T00:01:07;3.43;;;1.60;;
66127;SDS011;52925;52.436;-1.952;2023-02-20T00:02:27;4.77;;;2.10;;
66127;SDS011;52925;52.436;-1.952;2023-02-20T00:03:50;3.37;;;1.60;;
66127;SDS011;52925;52.436;-1.952;2023-02-20T00:05:11;2.80;;;1.80;;
66127;SDS011;52925;52.436;-1.952;2023-02-20T00:06:32;2.90;;;2.00;;
66127;SDS011;52925;52.436;-1.952;2023-02-20T00:07:53;1.83;;;1.50;;
66127;SDS011;52925;52.436;-1.952;2023-02-20T00:09:14;3.93;;;1.87;;
66127;SDS011;52925;52.436;-1.952;2023-02-20T00:10:34;3.67;;;1.63;;
66127;SDS011;52925;52.436;-1.952;2023-02-20T00:11:56;2.60;;;1.80;;
66127;SDS011;52925;52.436;-1.952;2023-02-20T00:13:17;2.00;;;1.47;;
66127;SDS011;52925;52.436;-1.952;2023-02-20T00:14:37;2.33;;;1.60;;
66127;SDS011;52925;52.436;-1.952;2023-02-20T00:15:58;2.50;;;1.67;;
66127;SDS011;52925;52.436;-1.952;2023-02-20T00:17:18;3.37;;;1.80;;
66127;SDS011;52925;52.436;-1.952;2023-02-20T00:18:38;3.10;;;1.70;;
66127;SDS011;52925;52.436;-1.952;2023-02-20T00:19:59;2.43;;;1.60;;
66127;SDS011;52925;52.436;-1.952;2023-02-20T00:21:19;3.20;;;1.73;;
66127;SDS011;52925;52.436;-1.952;2023-02-20T00:22:40;5.17;;;1.73;;
66127;SDS011;52925;52.436;-1.952;2023-02-20T00:24:01;3.63;;;1.80;;
66127;SDS011;52925;52.436;-1.952;2023-02-20T00:25:22;3.10;;;1.43;;
66127;SDS011;52925;52.436;-1.952;2023-02-20T00:26:46;3.23;;;1.73;;
66127;SDS011;52925;52.436;-1.952;2023-02-20T00:28:09;4.20;;;1.90;;
66127;SDS011;52925;52.436;-1.952;2023-02-20T00:29:29;4.13;;;1.80;;
66127;SDS011;52925;52.436;-1.952;2023-02-20T00:30:49;3.23;;;1.73;;
66127;SDS011;52925;52.436;-1.952;2023-02-20T00:32:09;3.13;;;1.87;;
66127;SDS011;52925;52.436;-1.952;2023-02-20T00:33:30;2.93;;;1.73;;
66127;SDS011;52925;52.436;-1.952;2023-02-20T00:34:51;3.03;;;1.47;;
66127;SDS011;52925;52.436;-1.952;2023-02-20T00:36:15;2.27;;;1.57;;
66127;SDS011;52925;52.436;-1.952;2023-02-20T00:37:38;3.03;;;1.60;;
66127;SDS011;52925;52.436;-1.952;2023-02-20T00:38:57;2.57;;;1.90;;
66127;SDS011;52925;52.436;-1.952;2023-02-20T00:40:19;3.00;;;1.70;;
66127;SDS011;52925;52.436;-1.952;2023-02-20T00:41:40;2.83;;;1.50;;
66127;SDS011;52925;52.436;-1.952;2023-02-20T00:43:01;3.70;;;1.70;;
66127;SDS011;52925;52.436;-1.952;2023-02-20T00:44:22;2.80;;;1.80;;
66127;SDS011;52925;52.436;-1.952;2023-02-20T00:45:43;2.43;;;1.60;;
66127;SDS011;52925;52.436;-1.952;2023-02-20T00:47:04;4.33;;;1.50;;
66127;SDS011;52925;52.436;-1.952;2023-02-20T00:48:25;3.60;;;1.40;;
66127;SDS011;52925;52.436;-1.952;2023-02-20T00:50:05;2.90;;;1.77;;
66127;SDS011;52925;52.436;-1.952;2023-02-20T00:51:27;3.50;;;1.87;;
66127;SDS011;52925;52.436;-1.952;2023-02-20T00:52:49;2.60;;;1.63;;
66127;SDS011;52925;52.436;-1.952;2023-02-20T00:54:10;1.37;;;1.20;;
66127;SDS011;52925;52.436;-1.952;2023-02-20T00:55:31;2.53;;;1.60;;
66127;SDS011;52925;52.436;-1.952;2023-02-20T00:56:51;2.30;;;1.67;;
66127;SDS011;52925;52.436;-1.952;2023-02-20T00:58:11;3.43;;;1.70;;
66127;SDS011;52925;52.436;-1.952;2023-02-20T00:59:33;2.80;;;1.73;;
66127;SDS011;52925;52.436;-1.952;2023-02-20T01:00:54;2.93;;;1.67;;
66127;SDS011;52925;52.436;-1.952;2023-02-20T01:02:15;3.17;;;1.40;;
66127;SDS011;52925;52.436;-1.952;2023-02-20T01:03:35;2.57;;;1.70;;
66127;SDS011;52925;52.436;-1.952;2023-02-20T01:04:55;3.57;;;1.60;;
66127;SDS011;52925;52.436;-1.952;2023-02-20T01:06:16;2.37;;;1.40;;
66127;SDS011;52925;52.436;-1.952;2023-02-20T01:07:37;1.97;;;1.13;;
66127;SDS011;52925;52.436;-1.952;2023-02-20T01:08:59;1.40;;;1.20;;
66127;SDS011;52925;52.436;-1.952;2023-02-20T01:10:19;2.60;;;1.47;;
66127;SDS011;52925;52.436;-1.952;2023-02-20T01:11:40;2.87;;;1.50;;
66127;SDS011;52925;52.436;-1.952;2023-02-20T01:13:00;2.73;;;1.67;;
66127;SDS011;52925;52.436;-1.952;2023-02-20T01:14:21;2.40;;;1.50;;
66127;SDS011;52925;52.436;-1.952;2023-02-20T01:15:43;2.83;;;1.40;;
66127;SDS011;52925;52.436;-1.952;2023-02-20T01:17:03;2.97;;;1.40;;
66127;SDS011;52925;52.436;-1.952;2023-02-20T01:18:24;2.00;;;1.20;;
66127;SDS011;52925;52.436;-1.952;2023-02-20T01:19:45;2.67;;;1.60;;
66127;SDS011;52925;52.436;-1.952;2023-02-20T01:21:05;2.43;;;1.30;;
66127;SDS011;52925;52.436;-1.952;2023-02-20T01:22:26;3.10;;;1.33;;
66127;SDS011;52925;52.436;-1.952;2023-02-20T01:23:46;3.70;;;1.37;;
66127;SDS011;52925;52.436;-1.952;2023-02-20T01:25:06;1.63;;;1.30;;
66127;SDS011;52925;52.436;-1.952;2023-02-20T01:26:26;1.57;;;1.40;;
66127;SDS011;52925;52.436;-1.952;2023-02-20T01:27:47;1.83;;;0.97;;
66127;SDS011;52925;52.436;-1.952;2023-02-20T01:29:07;2.83;;;1.20;;
66127;SDS011;52925;52.436;-1.952;2023-02-20T01:30:28;1.97;;;1.30;;
66127;SDS011;52925;52.436;-1.952;2023-02-20T01:31:51;2.57;;;1.27;;
66127;SDS011;52925;52.436;-1.952;2023-02-20T01:33:12;3.03;;;1.00;;
66127;SDS011;52925;52.436;-1.952;2023-02-20T01:34:32;2.07;;;1.33;;
66127;SDS011;52925;52.436;-1.952;2023-02-20T01:35:53;1.83;;;1.27;;
66127;SDS011;52925;52.436;-1.952;2023-02-20T01:37:14;2.87;;;1.20;;
66127;SDS011;52925;52.436;-1.952;2023-02-20T01:38:35;2.30;;;1.40;;
66127;SDS011;52925;52.436;-1.952;2023-02-20T01:39:58;1.40;;;1.30;;
66127;SDS011;52925;52.436;-1.952;2023-02-20T01:41:20;2.00;;;1.10;;
66127;SDS011;52925;52.436;-1.952;2023-02-20T01:42:42;1.70;;;1.00;;
66127;SDS011;52925;52.436;-1.952;2023-02-20T01:44:03;1.40;;;1.10;;
66127;SDS011;52925;52.436;-1.952;2023-02-20T01:45:29;1.70;;;1.00;;
66127;SDS011;52925;52.436;-1.952;2023-02-20T01:46:55;1.20;;;1.00;;
66127;SDS011;52925;52.436;-1.952;2023-02-20T01:48:17;1.80;;;0.90;;
66127;SDS011;52925;52.436;-1.952;2023-02-20T01:49:42;1.37;;;0.70;;
66127;SDS011;52925;52.436;-1.952;2023-02-20T01:51:05;1.33;;;1.00;;
66127;SDS011;52925;52.436;-1.952;2023-02-20T01:52:26;1.97;;;0.90;;
66127;SDS011;52925;52.436;-1.952;2023-02-20T01:53:48;0.93;;;0.80;;
66127;SDS011;52925;52.436;-1.952;2023-02-20T01:55:09;1.83;;;0.77;;
66127;SDS011;52925;52.436;-1.952;2023-02-20T01:56:32;1.00;;;0.60;;
66127;SDS011;52925;52.436;-1.952;2023-02-20T01:57:53;1.63;;;0.80;;
66127;SDS011;52925;52.436;-1.952;2023-02-20T01:59:19;1.57;;;0.63;;
66127;SDS011;52925;52.436;-1.952;2023-02-20T02:00:41;1.40;;;0.80;;
66127;SDS011;52925;52.436;-1.952;2023-02-20T02:02:03;1.33;;;0.70;;
66127;SDS011;52925;52.436;-1.952;2023-02-20T02:03:25;1.47;;;0.70;;
66127;SDS011;52925;52.436;-1.952;2023-02-20T02:04:49;1.10;;;0.80;;
66127;SDS011;52925;52.436;-1.952;2023-02-20T02:06:09;1.03;;;0.73;;
66127;SDS011;52925;52.436;-1.952;2023-02-20T02:07:32;1.20;;;0.80;;
66127;SDS011;52925;52.436;-1.952;2023-02-20T02:08:53;3.03;;;0.83;;
66127;SDS011;52925;52.436;-1.952;2023-02-20T02:10:17;0.80;;;0.60;;
66127;SDS011;52925;52.436;-1.952;2023-02-20T02:11:44;0.80;;;0.50;;
66127;SDS011;52925;52.436;-1.952;2023-02-20T02:13:05;1.50;;;0.87;;
66127;SDS011;52925;52.436;-1.952;2023-02-20T02:14:26;1.20;;;0.70;;
66127;SDS011;52925;52.436;-1.952;2023-02-20T02:15:49;1.17;;;0.63;;
66127;SDS011;52925;52.436;-1.952;2023-02-20T02:17:22;1.27;;;0.83;;
66127;SDS011;52925;52.436;-1.952;2023-02-20T02:19:04;1.43;;;0.53;;
66127;SDS011;52925;52.436;-1.952;2023-02-20T02:20:55;1.40;;;0.77;;
66127;SDS011;52925;52.436;-1.952;2023-02-20T02:22:49;0.97;;;0.60;;
66127;SDS011;52925;52.436;-1.952;2023-02-20T02:24:45;1.53;;;0.80;;
66127;SDS011;52925;52.436;-1.952;2023-02-20T02:28:56;0.60;;;0.43;;
66127;SDS011;52925;52.436;-1.952;2023-02-20T02:30:45;0.60;;;0.60;;
66127;SDS011;52925;52.436;-1.952;2023-02-20T02:32:32;0.60;;;0.60;;
66127;SDS011;52925;52.436;-1.952;2023-02-20T02:34:30;1.27;;;0.60;;
66127;SDS011;52925;52.436;-1.952;2023-02-20T02:36:23;0.57;;;0.40;;
66127;SDS011;52925;52.436;-1.952;2023-02-20T02:38:00;1.43;;;0.70;;
66127;SDS011;52925;52.436;-1.952;2023-02-20T02:39:29;1.30;;;0.60;;
66127;SDS011;52925;52.436;-1.952;2023-02-20T02:40:59;1.43;;;0.70;;
66127;SDS011;52925;52.436;-1.952;2023-02-20T02:42:28;1.40;;;0.77;;
66127;SDS011;52925;52.436;-1.952;2023-02-20T02:43:56;1.10;;;0.60;;
66127;SDS011;52925;52.436;-1.952;2023-02-20T02:45:27;0.50;;;0.50;;
66127;SDS011;52925;52.436;-1.952;2023-02-20T02:46:54;0.93;;;0.53;;
66127;SDS011;52925;52.436;-1.952;2023-02-20T02:48:19;1.23;;;0.50;;
66127;SDS011;52925;52.436;-1.952;2023-02-20T02:49:47;1.70;;;0.60;;
66127;SDS011;52925;52.436;-1.952;2023-02-20T02:51:09;0.93;;;0.50;;
66127;SDS011;52925;52.436;-1.952;2023-02-20T02:52:38;0.97;;;0.60;;
66127;SDS011;52925;52.436;-1.952;2023-02-20T02:54:09;0.60;;;0.43;;
66127;SDS011;52925;52.436;-1.952;2023-02-20T02:55:31;0.70;;;0.50;;
66127;SDS011;52925;52.436;-1.952;2023-02-20T02:56:53;0.53;;;0.50;;
66127;SDS011;52925;52.436;-1.952;2023-02-20T02:58:28;0.50;;;0.40;;
66127;SDS011;52925;52.436;-1.952;2023-02-20T02:59:50;0.70;;;0.40;;
66127;SDS011;52925;52.436;-1.952;2023-02-20T03:01:13;1.10;;;0.80;;
66127;SDS011;52925;52.436;-1.952;2023-02-20T03:02:37;1.00;;;0.70;;
66127;SDS011;52925;52.436;-1.952;2023-02-20T03:04:01;1.20;;;0.50;;
66127;SDS011;52925;52.436;-1.952;2023-02-20T03:05:28;1.00;;;0.70;;
66127;SDS011;52925;52.436;-1.952;2023-02-20T03:07:06;0.93;;;0.50;;
66127;SDS011;52925;52.436;-1.952;2023-02-20T03:08:32;1.00;;;0.53;;
66127;SDS011;52925;52.436;-1.952;2023-02-20T03:09:59;0.73;;;0.57;;
66127;SDS011;52925;52.436;-1.952;2023-02-20T03:11:28;0.90;;;0.50;;
66127;SDS011;52925;52.436;-1.952;2023-02-20T03:12:51;0.60;;;0.50;;
66127;SDS011;52925;52.436;-1.952;2023-02-20T03:14:15;0.97;;;0.60;;
66127;SDS011;52925;52.436;-1.952;2023-02-20T03:15:58;0.67;;;0.50;;
66127;SDS011;52925;52.436;-1.952;2023-02-20T03:17:23;1.27;;;0.50;;
66127;SDS011;52925;52.436;-1.952;2023-02-20T03:18:49;0.60;;;0.60;;
66127;SDS011;52925;52.436;-1.952;2023-02-20T03:20:15;1.10;;;0.53;;
66127;SDS011;52925;52.436;-1.952;2023-02-20T03:21:39;1.53;;;0.63;;
66127;SDS011;52925;52.436;-1.952;2023-02-20T03:23:02;1.90;;;0.60;;
66127;SDS011;52925;52.436;-1.952;2023-02-20T03:24:27;0.80;;;0.60;;
66127;SDS011;52925;52.436;-1.952;2023-02-20T03:25:51;1.13;;;0.50;;
66127;SDS011;52925;52.436;-1.952;2023-02-20T03:27:14;0.60;;;0.50;;
66127;SDS011;52925;52.436;-1.952;2023-02-20T03:28:35;0.67;;;0.57;;
66127;SDS011;52925;52.436;-1.952;2023-02-20T03:30:00;0.50;;;0.43;;
66127;SDS011;52925;52.436;-1.952;2023-02-20T03:31:23;0.53;;;0.50;;
66127;SDS011;52925;52.436;-1.952;2023-02-20T03:32:50;0.80;;;0.47;;
66127;SDS011;52925;52.436;-1.952;2023-02-20T03:34:32;0.83;;;0.60;;
66127;SDS011;52925;52.436;-1.952;2023-02-20T03:36:11;0.60;;;0.60;;
66127;SDS011;52925;52.436;-1.952;2023-02-20T03:37:52;0.67;;;0.40;;
66127;SDS011;52925;52.436;-1.952;2023-02-20T03:39:35;0.70;;;0.57;;
66127;SDS011;52925;52.436;-1.952;2023-02-20T03:41:17;0.60;;;0.50;;
66127;SDS011;52925;52.436;-1.952;2023-02-20T03:42:57;0.53;;;0.50;;
66127;SDS011;52925;52.436;-1.952;2023-02-20T03:44:39;0.57;;;0.43;;
66127;SDS011;52925;52.436;-1.952;2023-02-20T03:46:04;1.40;;;0.70;;
66127;SDS011;52925;52.436;-1.952;2023-02-20T03:47:29;0.60;;;0.50;;
66127;SDS011;52925;52.436;-1.952;2023-02-20T03:48:54;0.50;;;0.50;;
66127;SDS011;52925;52.436;-1.952;2023-02-20T03:50:19;0.60;;;0.50;;
66127;SDS011;52925;52.436;-1.952;2023-02-20T03:51:58;0.70;;;0.33;;
66127;SDS011;52925;52.436;-1.952;2023-02-20T03:53:27;0.90;;;0.50;;
66127;SDS011;52925;52.436;-1.952;2023-02-20T03:54:49;0.70;;;0.50;;
66127;SDS011;52925;52.436;-1.952;2023-02-20T03:56:12;0.80;;;0.50;;
66127;SDS011;52925;52.436;-1.952;2023-02-20T03:57:38;0.50;;;0.47;;
66127;SDS011;52925;52.436;-1.952;2023-02-20T03:59:05;0.87;;;0.40;;
66127;SDS011;52925;52.436;-1.952;2023-02-20T04:00:30;1.00;;;0.60;;
66127;SDS011;52925;52.436;-1.952;2023-02-20T04:01:55;0.90;;;0.50;;
66127;SDS011;52925;52.436;-1.952;2023-02-20T04:03:20;0.80;;;0.50;;
66127;SDS011;52925;52.436;-1.952;2023-02-20T04:04:45;0.80;;;0.50;;
66127;SDS011;52925;52.436;-1.952;2023-02-20T04:06:09;1.13;;;0.60;;
66127;SDS011;52925;52.436;-1.952;2023-02-20T04:07:32;0.40;;;0.33;;
66127;SDS011;52925;52.436;-1.952;2023-02-20T04:08:57;0.87;;;0.40;;
66127;SDS011;52925;52.436;-1.952;2023-02-20T04:10:23;0.57;;;0.40;;
66127;SDS011;52925;52.436;-1.952;2023-02-20T04:11:47;0.80;;;0.37;;
66127;SDS011;52925;52.436;-1.952;2023-02-20T04:13:10;0.53;;;0.40;;
66127;SDS011;52925;52.436;-1.952;2023-02-20T04:14:34;1.10;;;0.30;;
66127;SDS011;52925;52.436;-1.952;2023-02-20T04:15:55;0.80;;;0.57;;
66127;SDS011;52925;52.436;-1.952;2023-02-20T04:17:20;1.20;;;0.67;;
66127;SDS011;52925;52.436;-1.952;2023-02-20T04:18:44;1.87;;;0.60;;
66127;SDS011;52925;52.436;-1.952;2023-02-20T04:20:05;0.87;;;0.50;;
66127;SDS011;52925;52.436;-1.952;2023-02-20T04:21:31;0.50;;;0.40;;
66127;SDS011;52925;52.436;-1.952;2023-02-20T04:22:55;0.87;;;0.40;;
66127;SDS011;52925;52.436;-1.952;2023-02-20T04:24:22;0.70;;;0.50;;
66127;SDS011;52925;52.436;-1.952;2023-02-20T04:25:50;1.40;;;0.53;;
66127;SDS011;52925;52.436;-1.952;2023-02-20T04:27:15;2.03;;;0.60;;
66127;SDS011;52925;52.436;-1.952;2023-02-20T04:28:43;0.40;;;0.40;;
66127;SDS011;52925;52.436;-1.952;2023-02-20T04:30:07;0.57;;;0.43;;
66127;SDS011;52925;52.436;-1.952;2023-02-20T04:31:28;0.67;;;0.50;;
66127;SDS011;52925;52.436;-1.952;2023-02-20T04:32:49;0.97;;;0.50;;
66127;SDS011;52925;52.436;-1.952;2023-02-20T04:34:09;0.40;;;0.40;;
66127;SDS011;52925;52.436;-1.952;2023-02-20T04:35:30;0.60;;;0.40;;
66127;SDS011;52925;52.436;-1.952;2023-02-20T04:36:50;0.40;;;0.40;;
66127;SDS011;52925;52.436;-1.952;2023-02-20T04:38:17;0.70;;;0.50;;
66127;SDS011;52925;52.436;-1.952;2023-02-20T04:39:37;0.57;;;0.40;;
66127;SDS011;52925;52.436;-1.952;2023-02-20T04:40:59;0.60;;;0.50;;
66127;SDS011;52925;52.436;-1.952;2023-02-20T04:42:19;1.17;;;0.67;;
66127;SDS011;52925;52.436;-1.952;2023-02-20T04:43:41;0.97;;;0.60;;
66127;SDS011;52925;52.436;-1.952;2023-02-20T04:45:02;0.60;;;0.40;;
66127;SDS011;52925;52.436;-1.952;2023-02-20T04:46:23;0.83;;;0.50;;
66127;SDS011;52925;52.436;-1.952;2023-02-20T04:47:44;0.67;;;0.60;;
66127;SDS011;52925;52.436;-1.952;2023-02-20T04:49:05;0.67;;;0.40;;
66127;SDS011;52925;52.436;-1.952;2023-02-20T04:50:26;0.50;;;0.40;;
66127;SDS011;52925;52.436;-1.952;2023-02-20T04:51:49;1.00;;;0.60;;
66127;SDS011;52925;52.436;-1.952;2023-02-20T04:53:09;0.83;;;0.50;;
66127;SDS011;52925;52.436;-1.952;2023-02-20T04:54:30;0.93;;;0.60;;
66127;SDS011;52925;52.436;-1.952;2023-02-20T04:55:50;0.63;;;0.43;;
66127;SDS011;52925;52.436;-1.952;2023-02-20T04:57:15;1.03;;;0.53;;
66127;SDS011;52925;52.436;-1.952;2023-02-20T04:58:36;0.70;;;0.40;;
66127;SDS011;52925;52.436;-1.952;2023-02-20T05:00:08;1.53;;;0.63;;
66127;SDS011;52925;52.436;-1.952;2023-02-20T05:01:31;0.60;;;0.47;;
66127;SDS011;52925;52.436;-1.952;2023-02-20T05:02:51;1.00;;;0.50;;
66127;SDS011;52925;52.436;-1.952;2023-02-20T05:04:12;0.50;;;0.40;;
66127;SDS011;52925;52.436;-1.952;2023-02-20T05:05:32;0.50;;;0.50;;
66127;SDS011;52925;52.436;-1.952;2023-02-20T05:06:53;0.77;;;0.40;;
66127;SDS011;52925;52.436;-1.952;2023-02-20T05:08:14;0.67;;;0.40;;
66127;SDS011;52925;52.436;-1.952;2023-02-20T05:09:34;1.97;;;0.47;;
66127;SDS011;52925;52.436;-1.952;2023-02-20T05:10:55;0.40;;;0.40;;
66127;SDS011;52925;52.436;-1.952;2023-02-20T05:12:16;0.37;;;0.37;;
66127;SDS011;52925;52.436;-1.952;2023-02-20T05:13:37;0.90;;;0.30;;
66127;SDS011;52925;52.436;-1.952;2023-02-20T05:14:57;0.63;;;0.40;;
66127;SDS011;52925;52.436;-1.952;2023-02-20T05:16:18;0.47;;;0.30;;
66127;SDS011;52925;52.436;-1.952;2023-02-20T05:17:38;0.43;;;0.33;;
66127;SDS011;52925;52.436;-1.952;2023-02-20T05:18:58;0.47;;;0.30;;
66127;SDS011;52925;52.436;-1.952;2023-02-20T05:20:19;0.77;;;0.30;;
66127;SDS011;52925;52.436;-1.952;2023-02-20T05:22:00;0.33;;;0.30;;
66127;SDS011;52925;52.436;-1.952;2023-02-20T05:23:37;0.70;;;0.30;;
66127;SDS011;52925;52.436;-1.952;2023-02-20T05:24:57;0.70;;;0.37;;
66127;SDS011;52925;52.436;-1.952;2023-02-20T05:26:19;0.40;;;0.23;;
66127;SDS011;52925;52.436;-1.952;2023-02-20T05:27:41;0.53;;;0.27;;
66127;SDS011;52925;52.436;-1.952;2023-02-20T05:29:02;0.40;;;0.27;;
66127;SDS011;52925;52.436;-1.952;2023-02-20T05:30:22;0.40;;;0.20;;
66127;SDS011;52925;52.436;-1.952;2023-02-20T05:31:43;0.37;;;0.30;;
66127;SDS011;52925;52.436;-1.952;2023-02-20T05:33:02;0.40;;;0.20;;
66127;SDS011;52925;52.436;-1.952;2023-02-20T05:34:23;0.60;;;0.30;;
66127;SDS011;52925;52.436;-1.952;2023-02-20T05:35:43;0.20;;;0.17;;
66127;SDS011;52925;52.436;-1.952;2023-02-20T05:37:04;0.50;;;0.30;;
66127;SDS011;52925;52.436;-1.952;2023-02-20T05:38:25;0.40;;;0.20;;
66127;SDS011;52925;52.436;-1.952;2023-02-20T05:39:46;1.33;;;0.20;;
66127;SDS011;52925;52.436;-1.952;2023-02-20T05:41:06;0.40;;;0.23;;
66127;SDS011;52925;52.436;-1.952;2023-02-20T05:42:28;0.60;;;0.30;;
66127;SDS011;52925;52.436;-1.952;2023-02-20T05:43:50;1.13;;;0.30;;
66127;SDS011;52925;52.436;-1.952;2023-02-20T05:45:12;0.23;;;0.20;;
66127;SDS011;52925;52.436;-1.952;2023-02-20T05:46:37;0.37;;;0.30;;
66127;SDS011;52925;52.436;-1.952;2023-02-20T05:47:58;0.70;;;0.30;;
66127;SDS011;52925;52.436;-1.952;2023-02-20T05:49:19;0.27;;;0.17;;
66127;SDS011;52925;52.436;-1.952;2023-02-20T05:50:39;0.37;;;0.30;;
66127;SDS011;52925;52.436;-1.952;2023-02-20T05:52:10;0.70;;;0.30;;
66127;SDS011;52925;52.436;-1.952;2023-02-20T05:53:31;0.93;;;0.33;;
66127;SDS011;52925;52.436;-1.952;2023-02-20T05:54:52;0.87;;;0.30;;
66127;SDS011;52925;52.436;-1.952;2023-02-20T05:56:12;0.77;;;0.20;;
66127;SDS011;52925;52.436;-1.952;2023-02-20T05:57:32;0.27;;;0.20;;
66127;SDS011;52925;52.436;-1.952;2023-02-20T05:58:54;0.20;;;0.20;;
66127;SDS011;52925;52.436;-1.952;2023-02-20T06:00:14;0.43;;;0.20;;
66127;SDS011;52925;52.436;-1.952;2023-02-20T06:01:36;0.33;;;0.20;;
66127;SDS011;52925;52.436;-1.952;2023-02-20T06:02:56;0.43;;;0.30;;
66127;SDS011;52925;52.436;-1.952;2023-02-20T06:04:17;0.23;;;0.20;;
66127;SDS011;52925;52.436;-1.952;2023-02-20T06:05:38;1.13;;;0.30;;
66127;SDS011;52925;52.436;-1.952;2023-02-20T06:06:58;0.40;;;0.30;;
66127;SDS011;52925;52.436;-1.952;2023-02-20T06:08:19;0.50;;;0.20;;
66127;SDS011;52925;52.436;-1.952;2023-02-20T06:09:40;0.10;;;0.10;;
66127;SDS011;52925;52.436;-1.952;2023-02-20T06:11:02;0.33;;;0.20;;
66127;SDS011;52925;52.436;-1.952;2023-02-20T06:12:22;0.20;;;0.10;;
66127;SDS011;52925;52.436;-1.952;2023-02-20T06:13:43;0.80;;;0.20;;
66127;SDS011;52925;52.436;-1.952;2023-02-20T06:15:06;0.70;;;0.20;;
66127;SDS011;52925;52.436;-1.952;2023-02-20T06:16:28;0.40;;;0.30;;
66127;SDS011;52925;52.436;-1.952;2023-02-20T06:17:49;0.50;;;0.20;;
66127;SDS011;52925;52.436;-1.952;2023-02-20T06:19:09;0.57;;;0.23;;
66127;SDS011;52925;52.436;-1.952;2023-02-20T06:20:30;0.20;;;0.20;;
66127;SDS011;52925;52.436;-1.952;2023-02-20T06:21:51;0.70;;;0.20;;
66127;SDS011;52925;52.436;-1.952;2023-02-20T06:23:13;0.50;;;0.30;;
66127;SDS011;52925;52.436;-1.952;2023-02-20T06:24:34;0.50;;;0.17;;
66127;SDS011;52925;52.436;-1.952;2023-02-20T06:25:55;0.70;;;0.37;;
66127;SDS011;52925;52.436;-1.952;2023-02-20T06:27:15;0.30;;;0.30;;
66127;SDS011;52925;52.436;-1.952;2023-02-20T06:28:37;1.00;;;0.27;;
66127;SDS011;52925;52.436;-1.952;2023-02-20T06:29:59;0.43;;;0.30;;
66127;SDS011;52925;52.436;-1.952;2023-02-20T06:31:22;0.47;;;0.17;;
66127;SDS011;52925;52.436;-1.952;2023-02-20T06:32:43;2.50;;;0.30;;
66127;SDS011;52925;52.436;-1.952;2023-02-20T06:34:05;0.20;;;0.20;;
66127;SDS011;52925;52.436;-1.952;2023-02-20T06:35:26;0.60;;;0.30;;
66127;SDS011;52925;52.436;-1.952;2023-02-20T06:36:48;0.40;;;0.20;;
66127;SDS011;52925;52.436;-1.952;2023-02-20T06:38:08;0.43;;;0.20;;
66127;SDS011;52925;52.436;-1.952;2023-02-20T06:39:29;0.30;;;0.20;;
66127;SDS011;52925;52.436;-1.952;2023-02-20T06:40:51;0.30;;;0.30;;
66127;SDS011;52925;52.436;-1.952;2023-02-20T06:42:11;0.10;;;0.10;;
66127;SDS011;52925;52.436;-1.952;2023-02-20T06:43:31;0.37;;;0.20;;
66127;SDS011;52925;52.436;-1.952;2023-02-20T06:44:52;0.70;;;0.20;;
66127;SDS011;52925;52.436;-1.952;2023-02-20T06:46:13;0.40;;;0.30;;
66127;SDS011;52925;52.436;-1.952;2023-02-20T06:47:35;0.50;;;0.20;;
66127;SDS011;52925;52.436;-1.952;2023-02-20T06:48:56;0.57;;;0.40;;
66127;SDS011;52925;52.436;-1.952;2023-02-20T06:50:18;1.17;;;0.40;;
66127;SDS011;52925;52.436;-1.952;2023-02-20T06:51:39;0.20;;;0.20;;
66127;SDS011;52925;52.436;-1.952;2023-02-20T06:52:59;1.03;;;0.23;;
66127;SDS011;52925;52.436;-1.952;2023-02-20T06:54:20;0.43;;;0.20;;
66127;SDS011;52925;52.436;-1.952;2023-02-20T06:55:41;0.23;;;0.20;;
66127;SDS011;52925;52.436;-1.952;2023-02-20T06:57:01;0.27;;;0.20;;
66127;SDS011;52925;52.436;-1.952;2023-02-20T06:58:23;0.50;;;0.30;;
66127;SDS011;52925;52.436;-1.952;2023-02-20T06:59:43;0.43;;;0.30;;
66127;SDS011;52925;52.436;-1.952;2023-02-20T07:01:05;1.17;;;0.30;;
66127;SDS011;52925;52.436;-1.952;2023-02-20T07:02:28;0.70;;;0.30;;
66127;SDS011;52925;52.436;-1.952;2023-02-20T07:03:51;0.50;;;0.20;;
66127;SDS011;52925;52.436;-1.952;2023-02-20T07:05:13;0.80;;;0.40;;
66127;SDS011;52925;52.436;-1.952;2023-02-20T07:06:34;0.50;;;0.30;;
66127;SDS011;52925;52.436;-1.952;2023-02-20T07:07:55;1.00;;;0.30;;
66127;SDS011;52925;52.436;-1.952;2023-02-20T07:09:16;0.40;;;0.33;;
66127;SDS011;52925;52.436;-1.952;2023-02-20T07:10:38;0.50;;;0.30;;
66127;SDS011;52925;52.436;-1.952;2023-02-20T07:11:59;0.60;;;0.40;;
66127;SDS011;52925;52.436;-1.952;2023-02-20T07:13:18;0.20;;;0.13;;
66127;SDS011;52925;52.436;-1.952;2023-02-20T07:14:40;0.40;;;0.37;;
66127;SDS011;52925;52.436;-1.952;2023-02-20T07:16:01;0.70;;;0.30;;
66127;SDS011;52925;52.436;-1.952;2023-02-20T07:17:21;0.50;;;0.20;;
66127;SDS011;52925;52.436;-1.952;2023-02-20T07:18:42;1.10;;;0.30;;
66127;SDS011;52925;52.436;-1.952;2023-02-20T07:20:05;0.40;;;0.30;;
66127;SDS011;52925;52.436;-1.952;2023-02-20T07:21:26;1.47;;;0.40;;
66127;SDS011;52925;52.436;-1.952;2023-02-20T07:22:48;0.50;;;0.40;;
66127;SDS011;52925;52.436;-1.952;2023-02-20T07:24:09;0.40;;;0.30;;
66127;SDS011;52925;52.436;-1.952;2023-02-20T07:25:30;0.30;;;0.30;;
66127;SDS011;52925;52.436;-1.952;2023-02-20T07:26:51;0.20;;;0.20;;
66127;SDS011;52925;52.436;-1.952;2023-02-20T07:28:12;0.60;;;0.40;;
66127;SDS011;52925;52.436;-1.952;2023-02-20T07:29:33;0.93;;;0.40;;
66127;SDS011;52925;52.436;-1.952;2023-02-20T07:30:54;0.30;;;0.30;;
66127;SDS011;52925;52.436;-1.952;2023-02-20T07:32:14;0.40;;;0.30;;
66127;SDS011;52925;52.436;-1.952;2023-02-20T07:33:38;1.10;;;0.30;;
66127;SDS011;52925;52.436;-1.952;2023-02-20T07:35:01;0.17;;;0.10;;
66127;SDS011;52925;52.436;-1.952;2023-02-20T07:36:23;0.30;;;0.30;;
66127;SDS011;52925;52.436;-1.952;2023-02-20T07:37:43;1.03;;;0.40;;
66127;SDS011;52925;52.436;-1.952;2023-02-20T07:39:04;0.30;;;0.30;;
66127;SDS011;52925;52.436;-1.952;2023-02-20T07:40:25;0.50;;;0.40;;
66127;SDS011;52925;52.436;-1.952;2023-02-20T07:41:49;0.57;;;0.40;;
66127;SDS011;52925;52.436;-1.952;2023-02-20T07:43:28;0.30;;;0.27;;
66127;SDS011;52925;52.436;-1.952;2023-02-20T07:44:49;0.50;;;0.20;;
66127;SDS011;52925;52.436;-1.952;2023-02-20T07:46:10;0.20;;;0.20;;
66127;SDS011;52925;52.436;-1.952;2023-02-20T07:47:29;0.80;;;0.40;;
66127;SDS011;52925;52.436;-1.952;2023-02-20T07:48:50;0.40;;;0.33;;
66127;SDS011;52925;52.436;-1.952;2023-02-20T07:50:12;0.70;;;0.20;;
66127;SDS011;52925;52.436;-1.952;2023-02-20T07:51:35;0.70;;;0.20;;
66127;SDS011;52925;52.436;-1.952;2023-02-20T07:52:56;0.53;;;0.30;;
66127;SDS011;52925;52.436;-1.952;2023-02-20T07:54:16;0.30;;;0.30;;
66127;SDS011;52925;52.436;-1.952;2023-02-20T07:55:37;0.50;;;0.23;;
66127;SDS011;52925;52.436;-1.952;2023-02-20T07:56:58;1.10;;;0.20;;
66127;SDS011;52925;52.436;-1.952;2023-02-20T07:58:19;0.83;;;0.30;;
66127;SDS011;52925;52.436;-1.952;2023-02-20T07:59:41;1.17;;;0.30;;
66127;SDS011;52925;52.436;-1.952;2023-02-20T08:01:01;0.30;;;0.30;;
66127;SDS011;52925;52.436;-1.952;2023-02-20T08:02:22;0.40;;;0.30;;
66127;SDS011;52925;52.436;-1.952;2023-02-20T08:03:43;0.63;;;0.30;;
66127;SDS011;52925;52.436;-1.952;2023-02-20T08:05:04;0.40;;;0.20;;
66127;SDS011;52925;52.436;-1.952;2023-02-20T08:06:25;0.27;;;0.20;;
66127;SDS011;52925;52.436;-1.952;2023-02-20T08:07:48;0.33;;;0.23;;
66127;SDS011;52925;52.436;-1.952;2023-02-20T08:09:09;0.70;;;0.20;;
66127;SDS011;52925;52.436;-1.952;2023-02-20T08:10:30;0.73;;;0.30;;
66127;SDS011;52925;52.436;-1.952;2023-02-20T08:11:51;0.20;;;0.20;;
66127;SDS011;52925;52.436;-1.952;2023-02-20T08:13:12;0.13;;;0.13;;
66127;SDS011;52925;52.436;-1.952;2023-02-20T08:14:33;0.40;;;0.20;;
66127;SDS011;52925;52.436;-1.952;2023-02-20T08:15:54;0.70;;;0.27;;
66127;SDS011;52925;52.436;-1.952;2023-02-20T08:17:15;0.50;;;0.30;;
66127;SDS011;52925;52.436;-1.952;2023-02-20T08:18:35;0.67;;;0.37;;